createdAt,value
2018-07-27T00:00:25.531Z,28.52
2018-07-27T00:02:02.594Z,28.60
2018-07-27T00:03:39.160Z,28.63
2018-07-27T00:05:15.686Z,28.67
2018-07-27T00:06:53.645Z,28.67
2018-07-27T00:08:37.033Z,28.60
2018-07-27T00:10:18.459Z,28.51
2018-07-27T00:11:55.992Z,28.34
2018-07-27T00:13:34.492Z,28.30
2018-07-27T00:15:12.464Z,28.18
2018-07-27T00:16:52.553Z,28.25
2018-07-27T00:18:32.178Z,28.24
2018-07-27T00:20:10.823Z,28.26
2018-07-27T00:21:50.389Z,28.37
2018-07-27T00:23:26.866Z,28.45
2018-07-27T00:25:05.638Z,28.44
2018-07-27T00:26:43.656Z,28.37
2018-07-27T00:28:22.525Z,28.33
2018-07-27T00:30:00.952Z,28.26
2018-07-27T00:31:53.691Z,28.30
2018-07-27T00:33:30.523Z,28.34
2018-07-27T00:35:09.071Z,28.48
2018-07-27T00:36:48.942Z,28.62
2018-07-27T00:38:25.847Z,28.77
2018-07-27T00:40:02.798Z,28.91
2018-07-27T00:41:45.193Z,28.94
2018-07-27T00:43:26.523Z,29.00
2018-07-27T00:45:03.478Z,29.07
2018-07-27T00:46:43.483Z,29.15
2018-07-27T00:48:21.184Z,29.24
2018-07-27T00:50:01.946Z,29.31
2018-07-27T00:51:38.525Z,29.37
2018-07-27T00:53:15.909Z,29.42
2018-07-27T00:54:53.003Z,29.38
2018-07-27T00:56:30.935Z,29.37
2018-07-27T00:58:08.363Z,29.38
2018-07-27T00:59:46.637Z,29.38
2018-07-27T01:01:23.222Z,29.38
2018-07-27T01:03:01.068Z,29.44
2018-07-27T01:04:38.372Z,29.55
2018-07-27T01:06:16.681Z,29.56
2018-07-27T01:07:52.849Z,29.58
2018-07-27T01:09:32.535Z,29.48
2018-07-27T01:11:09.833Z,29.52
2018-07-27T01:12:46.432Z,29.69
2018-07-27T01:14:24.471Z,29.68
2018-07-27T01:16:01.688Z,29.47
2018-07-27T01:17:39.317Z,29.31
2018-07-27T01:19:18.397Z,29.29
2018-07-27T01:20:55.725Z,29.29
2018-07-27T01:22:33.761Z,29.31
2018-07-27T01:24:12.004Z,29.35
2018-07-27T01:25:48.630Z,29.33
2018-07-27T01:27:26.774Z,29.16
2018-07-27T01:29:03.696Z,28.98
2018-07-27T01:30:40.571Z,28.86
2018-07-27T01:32:17.044Z,28.53
2018-07-27T01:33:54.537Z,28.35
2018-07-27T01:35:31.393Z,28.14
2018-07-27T01:37:09.272Z,28.05
2018-07-27T01:38:47.705Z,27.94
2018-07-27T01:40:24.295Z,27.73
2018-07-27T01:42:02.472Z,27.44
2018-07-27T01:43:41.967Z,27.20
2018-07-27T01:45:18.952Z,27.07
2018-07-27T01:46:56.374Z,27.00
2018-07-27T01:48:34.064Z,27.00
2018-07-27T01:50:10.568Z,27.00
2018-07-27T01:51:47.629Z,26.99
2018-07-27T01:53:24.230Z,27.03
2018-07-27T01:55:02.063Z,27.08
2018-07-27T01:56:39.656Z,27.20
2018-07-27T01:58:16.105Z,27.26
2018-07-27T01:59:53.131Z,27.26
2018-07-27T02:01:30.119Z,27.27
2018-07-27T02:03:06.801Z,27.31
2018-07-27T02:04:43.455Z,27.35
2018-07-27T02:06:23.641Z,27.42
2018-07-27T02:08:01.564Z,27.46
2018-07-27T02:09:39.784Z,27.51
2018-07-27T02:11:20.405Z,27.55
2018-07-27T02:12:58.861Z,27.66
2018-07-27T02:14:36.304Z,27.80
2018-07-27T02:16:17.327Z,27.84
2018-07-27T02:17:54.845Z,27.88
2018-07-27T02:19:31.972Z,27.91
2018-07-27T02:21:10.168Z,27.96
2018-07-27T02:22:46.563Z,28.10
2018-07-27T02:24:23.001Z,28.36
2018-07-27T02:26:00.116Z,28.47
2018-07-27T02:27:36.691Z,28.65
2018-07-27T02:29:15.333Z,28.78
2018-07-27T02:30:53.076Z,28.80
2018-07-27T02:32:31.660Z,28.84
2018-07-27T02:34:09.320Z,28.83
2018-07-27T02:35:47.227Z,28.90
2018-07-27T02:37:25.493Z,28.95
2018-07-27T02:39:02.836Z,28.89
2018-07-27T02:40:40.041Z,28.93
2018-07-27T02:42:17.545Z,28.88
2018-07-27T02:43:54.930Z,28.86
2018-07-27T02:45:31.774Z,28.76
2018-07-27T02:47:08.253Z,28.70
2018-07-27T02:48:44.757Z,28.70
2018-07-27T02:50:21.617Z,28.73
2018-07-27T02:51:59.612Z,28.69
2018-07-27T02:53:36.848Z,28.61
2018-07-27T02:55:12.984Z,28.62
2018-07-27T02:56:49.283Z,28.69
2018-07-27T02:58:26.403Z,28.58
2018-07-27T03:00:03.753Z,28.47
2018-07-27T03:01:40.699Z,28.36
2018-07-27T03:03:17.308Z,28.27
2018-07-27T03:04:54.913Z,28.31
2018-07-27T03:06:31.384Z,28.34
2018-07-27T03:08:08.974Z,28.18
2018-07-27T03:09:46.364Z,28.12
2018-07-27T03:11:23.372Z,27.99
2018-07-27T03:13:00.272Z,27.55
2018-07-27T03:14:37.162Z,27.50
2018-07-27T03:16:13.912Z,27.56
2018-07-27T03:17:51.072Z,27.64
2018-07-27T03:19:27.804Z,27.75
2018-07-27T03:21:04.559Z,27.73
2018-07-27T03:22:41.504Z,27.63
2018-07-27T03:24:20.033Z,27.55
2018-07-27T03:25:57.682Z,27.64
2018-07-27T03:27:34.472Z,27.63
2018-07-27T03:29:11.889Z,27.63
2018-07-27T03:30:49.110Z,27.72
2018-07-27T03:32:25.601Z,27.69
2018-07-27T03:34:02.068Z,27.53
2018-07-27T03:35:39.409Z,27.48
2018-07-27T03:37:16.759Z,27.46
2018-07-27T03:38:53.203Z,27.41
2018-07-27T03:40:29.485Z,27.34
2018-07-27T03:42:05.876Z,27.34
2018-07-27T03:43:43.369Z,27.40
2018-07-27T03:45:20.074Z,27.45
2018-07-27T03:46:56.734Z,27.46
2018-07-27T03:48:33.811Z,27.50
2018-07-27T03:50:11.299Z,27.46
2018-07-27T03:51:48.342Z,27.47
2018-07-27T03:53:24.733Z,27.45
2018-07-27T03:55:01.237Z,27.38
2018-07-27T03:56:38.245Z,27.36
2018-07-27T03:58:14.641Z,27.20
2018-07-27T03:59:51.811Z,27.08
2018-07-27T04:01:28.697Z,27.12
2018-07-27T04:03:05.591Z,27.21
2018-07-27T04:04:42.042Z,27.32
2018-07-27T04:06:18.487Z,27.41
2018-07-27T04:07:55.937Z,27.27
2018-07-27T04:09:33.507Z,27.16
2018-07-27T04:11:10.329Z,27.29
2018-07-27T04:12:46.702Z,27.32
2018-07-27T04:14:23.146Z,27.36
2018-07-27T04:16:00.211Z,27.14
2018-07-27T04:17:37.282Z,27.07
2018-07-27T04:19:13.772Z,27.27
2018-07-27T04:20:50.272Z,27.60
2018-07-27T04:22:26.749Z,27.86
2018-07-27T04:24:03.242Z,28.14
2018-07-27T04:25:40.381Z,28.30
2018-07-27T04:27:17.655Z,28.49
2018-07-27T04:28:54.515Z,28.70
2018-07-27T04:30:31.294Z,28.86
2018-07-27T04:32:09.425Z,29.07
2018-07-27T04:33:45.952Z,29.24
2018-07-27T04:35:23.003Z,29.32
2018-07-27T04:37:00.088Z,29.33
2018-07-27T04:38:36.544Z,29.40
2018-07-27T04:40:13.876Z,29.62
2018-07-27T04:41:51.177Z,29.67
2018-07-27T04:43:27.818Z,29.72
2018-07-27T04:45:05.265Z,29.52
2018-07-27T04:46:41.991Z,29.28
2018-07-27T04:48:19.440Z,29.16
2018-07-27T04:49:55.961Z,29.24
2018-07-27T04:51:32.505Z,29.49
2018-07-27T04:53:08.926Z,29.60
2018-07-27T04:54:45.726Z,29.86
2018-07-27T04:56:22.132Z,29.94
2018-07-27T04:57:59.473Z,30.09
2018-07-27T04:59:35.893Z,30.03
2018-07-27T05:01:13.054Z,29.90
2018-07-27T05:02:49.482Z,29.99
2018-07-27T05:04:30.020Z,29.93
2018-07-27T05:06:07.250Z,30.17
2018-07-27T05:07:44.667Z,30.45
2018-07-27T05:09:23.883Z,30.77
2018-07-27T05:11:01.463Z,31.10
2018-07-27T05:12:39.365Z,31.21
2018-07-27T05:14:16.540Z,31.61
2018-07-27T05:15:52.948Z,32.16
2018-07-27T05:17:29.413Z,32.49
2018-07-27T05:19:06.589Z,32.86
2018-07-27T05:20:44.535Z,32.80
2018-07-27T05:22:20.959Z,32.71
2018-07-27T05:23:57.551Z,32.61
2018-07-27T05:25:33.956Z,32.66
2018-07-27T05:27:12.554Z,32.57
2018-07-27T05:28:49.110Z,32.36
2018-07-27T05:30:28.498Z,31.96
2018-07-27T05:32:04.984Z,31.59
2018-07-27T05:33:42.754Z,31.34
2018-07-27T05:35:19.256Z,31.01
2018-07-27T05:37:00.714Z,30.85
2018-07-27T05:38:38.387Z,30.75
2018-07-27T05:40:15.204Z,30.56
2018-07-27T05:41:55.909Z,30.48
2018-07-27T05:43:33.135Z,30.37
2018-07-27T05:45:09.713Z,30.29
2018-07-27T05:46:46.776Z,30.25
2018-07-27T05:48:24.434Z,30.35
2018-07-27T05:50:01.514Z,30.51
2018-07-27T05:51:38.781Z,30.70
2018-07-27T05:53:15.245Z,30.93
2018-07-27T05:54:51.626Z,30.86
2018-07-27T05:56:28.497Z,30.81
2018-07-27T05:58:05.015Z,31.02
2018-07-27T05:59:41.421Z,30.94
2018-07-27T06:01:17.944Z,31.02
2018-07-27T06:02:54.469Z,31.22
2018-07-27T06:04:31.464Z,31.49
2018-07-27T06:06:08.346Z,31.55
2018-07-27T06:07:44.891Z,31.74
2018-07-27T06:09:21.380Z,31.99
2018-07-27T06:10:59.094Z,32.17
2018-07-27T06:12:35.216Z,32.60
2018-07-27T06:14:12.063Z,33.04
2018-07-27T06:15:48.104Z,33.31
2018-07-27T06:17:27.505Z,33.66
2018-07-27T06:19:04.090Z,33.84
2018-07-27T06:20:41.425Z,33.92
2018-07-27T06:22:17.972Z,33.84
2018-07-27T06:23:54.845Z,33.09
2018-07-27T06:25:32.326Z,32.72
2018-07-27T06:27:08.867Z,32.41
2018-07-27T06:28:45.322Z,32.24
2018-07-27T06:30:23.701Z,32.21
2018-07-27T06:32:02.627Z,32.58
2018-07-27T06:33:40.003Z,32.77
2018-07-27T06:35:17.899Z,33.00
2018-07-27T06:36:56.305Z,33.37
2018-07-27T06:38:33.782Z,32.97
2018-07-27T06:40:10.420Z,32.69
2018-07-27T06:41:50.333Z,33.00
2018-07-27T06:43:26.885Z,33.31
2018-07-27T06:45:04.066Z,33.50
2018-07-27T06:46:40.685Z,33.69
2018-07-27T06:48:19.421Z,33.66
2018-07-27T06:49:56.230Z,33.97
2018-07-27T06:51:33.307Z,34.28
2018-07-27T06:53:10.529Z,34.74
2018-07-27T06:54:47.084Z,34.89
2018-07-27T06:56:23.892Z,35.11
2018-07-27T06:58:00.417Z,35.62
2018-07-27T06:59:36.830Z,36.08
2018-07-27T07:01:13.002Z,35.96
2018-07-27T07:02:50.604Z,35.96
2018-07-27T07:04:27.053Z,35.33
2018-07-27T07:06:03.339Z,35.02
2018-07-27T07:07:39.895Z,34.32
2018-07-27T07:09:16.331Z,33.60
2018-07-27T07:10:52.830Z,33.57
2018-07-27T07:12:29.323Z,33.68
2018-07-27T07:14:06.520Z,33.86
2018-07-27T07:15:43.551Z,34.11
2018-07-27T07:17:20.039Z,34.51
2018-07-27T07:18:57.185Z,34.71
2018-07-27T07:20:33.648Z,34.60
2018-07-27T07:22:11.381Z,34.17
2018-07-27T07:23:47.818Z,34.45
2018-07-27T07:25:24.335Z,34.77
2018-07-27T07:27:02.504Z,34.80
2018-07-27T07:28:42.597Z,34.90
2018-07-27T07:30:20.613Z,34.96
2018-07-27T07:31:56.888Z,34.66
2018-07-27T07:33:32.780Z,34.72
2018-07-27T07:35:11.294Z,34.80
2018-07-27T07:36:47.817Z,35.42
2018-07-27T07:38:24.292Z,35.38
2018-07-27T07:40:01.630Z,35.12
2018-07-27T07:41:38.841Z,34.91
2018-07-27T07:43:17.823Z,35.38
2018-07-27T07:44:55.763Z,35.58
2018-07-27T07:46:32.528Z,35.99
2018-07-27T07:48:10.728Z,35.50
2018-07-27T07:49:47.298Z,34.80
2018-07-27T07:51:24.874Z,34.56
2018-07-27T07:53:01.326Z,34.39
2018-07-27T07:54:39.024Z,34.21
2018-07-27T07:56:16.268Z,34.57
2018-07-27T07:57:53.498Z,34.98
2018-07-27T07:59:34.529Z,34.85
2018-07-27T08:01:11.200Z,34.94
2018-07-27T08:02:48.870Z,34.87
2018-07-27T08:04:26.517Z,34.91
2018-07-27T08:06:03.866Z,35.22
2018-07-27T08:07:40.716Z,35.19
2018-07-27T08:09:19.415Z,35.22
2018-07-27T08:11:01.313Z,34.99
2018-07-27T08:12:38.919Z,34.91
2018-07-27T08:14:16.043Z,34.98
2018-07-27T08:15:52.566Z,34.91
2018-07-27T08:17:31.842Z,34.86
2018-07-27T08:19:09.002Z,34.87
2018-07-27T08:20:47.575Z,34.86
2018-07-27T08:22:24.891Z,34.88
2018-07-27T08:24:01.361Z,34.83
2018-07-27T08:26:48.376Z,34.65
2018-07-27T08:28:41.639Z,34.65
2018-07-27T08:30:20.829Z,34.93
2018-07-27T08:32:01.591Z,35.12
2018-07-27T08:33:38.111Z,35.21
2018-07-27T08:35:14.672Z,34.71
2018-07-27T08:36:51.669Z,34.61
2018-07-27T08:38:28.528Z,34.57
2018-07-27T08:40:05.691Z,34.51
2018-07-27T08:41:42.192Z,34.48
2018-07-27T08:43:19.149Z,34.43
2018-07-27T08:44:57.669Z,34.62
2018-07-27T08:46:35.463Z,34.56
2018-07-27T08:48:12.768Z,34.49
2018-07-27T08:49:49.207Z,34.66
2018-07-27T08:51:26.792Z,34.64
2018-07-27T08:53:03.351Z,34.70
2018-07-27T08:54:40.398Z,34.71
2018-07-27T08:56:17.472Z,34.75
2018-07-27T08:57:55.397Z,35.02
2018-07-27T08:59:31.924Z,35.11
2018-07-27T09:01:09.335Z,35.47
2018-07-27T09:02:47.631Z,35.12
2018-07-27T09:04:24.762Z,35.12
2018-07-27T09:06:01.275Z,34.83
2018-07-27T09:07:37.815Z,34.77
2018-07-27T09:09:16.183Z,34.78
2018-07-27T09:10:55.456Z,34.68
2018-07-27T09:12:33.557Z,34.80
2018-07-27T09:14:10.157Z,34.51
2018-07-27T09:17:34.875Z,34.49
2018-07-27T09:19:11.997Z,34.77
2018-07-27T09:20:48.636Z,34.83
2018-07-27T09:22:25.277Z,34.62
2018-07-27T09:24:01.903Z,34.65
2018-07-27T09:25:40.089Z,34.73
2018-07-27T09:27:17.307Z,34.56
2018-07-27T09:28:57.912Z,34.48
2018-07-27T09:30:36.590Z,34.53
2018-07-27T09:32:19.096Z,34.67
2018-07-27T09:33:57.365Z,34.93
2018-07-27T09:35:38.932Z,34.57
2018-07-27T09:38:46.551Z,34.52
2018-07-27T09:40:23.717Z,34.81
2018-07-27T09:42:00.169Z,34.79
2018-07-27T09:43:38.543Z,35.02
2018-07-27T09:45:16.740Z,34.92
2018-07-27T09:46:53.542Z,34.95
2018-07-27T09:48:29.979Z,34.90
2018-07-27T09:50:07.672Z,34.77
2018-07-27T09:51:44.376Z,34.63
2018-07-27T09:53:21.543Z,34.64
2018-07-27T09:54:59.433Z,34.71
2018-07-27T09:56:37.273Z,34.40
2018-07-27T09:58:14.272Z,34.33
2018-07-27T09:59:51.629Z,34.63
2018-07-27T10:01:29.648Z,34.77
2018-07-27T10:03:07.636Z,34.77
2018-07-27T10:04:45.343Z,34.98
2018-07-27T10:06:24.509Z,35.14
2018-07-27T10:08:01.733Z,34.93
2018-07-27T10:09:41.912Z,35.13
2018-07-27T10:11:19.330Z,35.34
2018-07-27T10:12:56.693Z,35.56
2018-07-27T10:14:34.336Z,35.30
2018-07-27T10:16:12.843Z,34.89
2018-07-27T10:17:51.611Z,34.91
2018-07-27T10:19:28.945Z,35.53
2018-07-27T10:21:06.506Z,35.97
2018-07-27T10:22:43.300Z,35.91
2018-07-27T10:24:20.729Z,35.67
2018-07-27T10:25:57.410Z,35.50
2018-07-27T10:27:38.435Z,35.70
2018-07-27T10:29:15.270Z,35.19
2018-07-27T10:30:53.201Z,35.07
2018-07-27T10:32:30.716Z,35.16
2018-07-27T10:34:07.252Z,35.06
2018-07-27T10:35:45.646Z,35.25
2018-07-27T10:37:25.888Z,35.44
2018-07-27T10:39:08.534Z,35.49
2018-07-27T10:40:46.616Z,35.62
2018-07-27T10:42:25.198Z,35.30
2018-07-27T10:44:04.529Z,35.16
2018-07-27T10:45:42.980Z,35.40
2018-07-27T10:47:21.046Z,35.39
2018-07-27T10:49:00.071Z,35.32
2018-07-27T10:50:37.422Z,35.56
2018-07-27T10:52:14.638Z,35.89
2018-07-27T10:53:51.051Z,36.24
2018-07-27T10:55:31.242Z,35.95
2018-07-27T10:57:10.743Z,35.85
2018-07-27T10:58:52.905Z,35.81
2018-07-27T11:00:30.620Z,35.59
2018-07-27T11:02:07.776Z,35.45
2018-07-27T11:03:44.358Z,35.90
2018-07-27T11:05:24.696Z,35.67
2018-07-27T11:07:01.086Z,35.63
2018-07-27T11:08:40.237Z,35.50
2018-07-27T11:10:19.729Z,35.19
2018-07-27T11:11:57.500Z,35.28
2018-07-27T11:13:35.981Z,35.40
2018-07-27T11:15:16.239Z,35.42
2018-07-27T11:16:53.774Z,35.36
2018-07-27T11:18:31.524Z,35.38
2018-07-27T11:20:09.940Z,35.49
2018-07-27T11:21:48.904Z,35.36
2018-07-27T11:23:25.361Z,35.58
2018-07-27T11:25:05.872Z,36.12
2018-07-27T11:26:42.449Z,36.41
2018-07-27T11:28:20.725Z,36.35
2018-07-27T11:29:57.286Z,36.04
2018-07-27T11:31:38.879Z,35.92
2018-07-27T11:33:16.271Z,35.89
2018-07-27T11:34:52.723Z,35.88
2018-07-27T11:36:31.667Z,35.77
2018-07-27T11:38:12.238Z,35.79
2018-07-27T11:39:51.038Z,35.77
2018-07-27T11:41:28.320Z,35.76
2018-07-27T11:43:06.579Z,35.97
2018-07-27T11:44:44.339Z,36.01
2018-07-27T11:46:23.686Z,35.96
2018-07-27T11:48:03.676Z,35.97
2018-07-27T11:49:40.256Z,36.11
2018-07-27T11:51:16.654Z,36.08
2018-07-27T11:52:54.079Z,35.79
2018-07-27T11:54:30.564Z,35.77
2018-07-27T11:56:07.672Z,35.62
2018-07-27T11:57:45.655Z,35.36
2018-07-27T11:59:26.334Z,35.32
2018-07-27T12:01:03.998Z,35.51
2018-07-27T12:02:42.220Z,35.53
2018-07-27T12:04:18.941Z,35.89
2018-07-27T12:05:57.918Z,36.15
2018-07-27T12:07:36.777Z,36.25
2018-07-27T12:10:54.746Z,36.60
2018-07-27T12:12:32.666Z,36.19
2018-07-27T12:14:09.441Z,35.86
2018-07-27T12:15:51.472Z,36.09
2018-07-27T12:17:31.375Z,36.42
2018-07-27T12:19:09.209Z,36.30
2018-07-27T12:20:47.017Z,36.31
2018-07-27T12:22:25.129Z,36.54
2018-07-27T12:24:02.025Z,36.65
2018-07-27T12:25:39.874Z,37.09
2018-07-27T12:27:17.251Z,37.53
2018-07-27T12:28:55.125Z,37.47
2018-07-27T12:30:32.443Z,37.21
2018-07-27T12:32:10.552Z,36.84
2018-07-27T12:33:49.316Z,36.99
2018-07-27T12:35:37.240Z,37.05
2018-07-27T12:37:14.268Z,36.62
2018-07-27T12:38:51.578Z,36.39
2018-07-27T12:40:31.192Z,36.57
2018-07-27T12:42:11.661Z,36.46
2018-07-27T12:43:50.836Z,36.39
2018-07-27T12:45:30.721Z,35.96
2018-07-27T12:47:07.754Z,36.03
2018-07-27T12:48:46.440Z,36.09
2018-07-27T12:50:23.823Z,35.99
2018-07-27T12:52:02.324Z,36.15
2018-07-27T12:53:40.587Z,36.23
2018-07-27T12:55:17.228Z,36.13
2018-07-27T12:56:58.812Z,36.37
2018-07-27T12:58:35.916Z,36.37
2018-07-27T13:00:14.816Z,36.45
2018-07-27T13:01:52.360Z,36.48
2018-07-27T13:03:32.329Z,36.71
2018-07-27T13:05:13.245Z,37.04
2018-07-27T13:06:52.028Z,37.23
2018-07-27T13:08:29.385Z,36.76
2018-07-27T13:12:03.066Z,35.93
2018-07-27T13:13:41.180Z,35.87
2018-07-27T13:15:18.251Z,36.13
2018-07-27T13:17:09.140Z,36.30
2018-07-27T13:18:46.121Z,36.49
2018-07-27T13:20:23.277Z,36.73
2018-07-27T13:22:00.601Z,36.53
2018-07-27T13:25:10.971Z,36.68
2018-07-27T13:26:47.628Z,37.05
2018-07-27T13:28:24.238Z,37.53
2018-07-27T13:30:05.435Z,37.54
2018-07-27T13:31:54.603Z,37.34
2018-07-27T13:33:34.570Z,37.02
2018-07-27T13:36:52.422Z,36.68
2018-07-27T13:38:30.383Z,36.42
2018-07-27T13:40:09.606Z,36.18
2018-07-27T13:41:51.173Z,36.09
2018-07-27T13:43:29.054Z,35.97
2018-07-27T13:45:09.873Z,35.85
2018-07-27T13:46:47.679Z,35.97
2018-07-27T13:48:25.503Z,36.10
2018-07-27T13:50:02.131Z,36.23
2018-07-27T13:51:39.110Z,36.18
2018-07-27T13:53:17.546Z,36.00
2018-07-27T13:54:55.771Z,36.20
2018-07-27T13:56:32.383Z,36.38
2018-07-27T13:58:09.133Z,36.82
2018-07-27T13:59:50.854Z,37.08
2018-07-27T14:01:28.507Z,37.07
2018-07-27T14:03:06.664Z,36.92
2018-07-27T14:04:47.054Z,36.97
2018-07-27T14:06:24.421Z,37.49
2018-07-27T14:08:05.251Z,37.90
2018-07-27T14:09:44.357Z,37.94
2018-07-27T14:11:21.766Z,37.45
2018-07-27T14:12:59.488Z,36.94
2018-07-27T14:14:36.097Z,37.06
2018-07-27T14:16:12.886Z,37.40
2018-07-27T14:17:50.540Z,37.79
2018-07-27T14:19:28.086Z,37.99
2018-07-27T14:21:06.114Z,37.68
2018-07-27T14:22:42.782Z,37.05
2018-07-27T14:24:22.444Z,36.67
2018-07-27T14:25:59.814Z,36.79
2018-07-27T14:27:40.011Z,37.13
2018-07-27T14:29:17.138Z,37.50
2018-07-27T14:30:54.970Z,37.31
2018-07-27T14:32:32.924Z,37.47
2018-07-27T14:34:11.321Z,37.60
2018-07-27T14:35:49.170Z,37.62
2018-07-27T14:37:26.547Z,37.42
2018-07-27T14:39:03.878Z,36.72
2018-07-27T14:40:40.430Z,36.59
2018-07-27T14:42:18.677Z,36.61
2018-07-27T14:43:56.471Z,36.64
2018-07-27T14:45:34.066Z,36.66
2018-07-27T14:47:12.678Z,36.76
2018-07-27T14:48:51.478Z,37.21
2018-07-27T14:50:28.952Z,37.45
2018-07-27T14:52:06.761Z,37.34
2018-07-27T14:53:43.322Z,37.05
2018-07-27T14:55:21.255Z,37.00
2018-07-27T14:56:57.804Z,36.86
2018-07-27T14:58:37.169Z,36.74
2018-07-27T15:00:18.463Z,36.73
2018-07-27T15:01:56.479Z,36.80
2018-07-27T15:03:35.685Z,37.23
2018-07-27T15:05:14.091Z,37.73
2018-07-27T15:06:54.332Z,37.72
2018-07-27T15:08:31.526Z,37.62
2018-07-27T15:10:14.373Z,37.46
2018-07-27T15:11:55.847Z,37.33
2018-07-27T15:13:35.995Z,37.15
2018-07-27T15:15:21.690Z,37.12
2018-07-27T15:17:02.615Z,36.90
2018-07-27T15:18:43.143Z,36.95
2018-07-27T15:20:23.548Z,36.97
2018-07-27T15:22:03.459Z,36.95
2018-07-27T15:23:41.473Z,37.12
2018-07-27T15:25:18.016Z,37.15
2018-07-27T15:26:54.497Z,37.00
2018-07-27T15:28:33.644Z,36.99
2018-07-27T15:30:22.268Z,36.88
2018-07-27T15:32:02.131Z,36.74
2018-07-27T15:33:39.684Z,36.84
2018-07-27T15:35:22.651Z,37.09
2018-07-27T15:36:59.197Z,36.98
2018-07-27T15:38:36.382Z,36.89
2018-07-27T15:41:50.247Z,36.88
2018-07-27T15:43:27.339Z,36.72
2018-07-27T15:45:05.547Z,36.88
2018-07-27T15:46:47.492Z,37.05
2018-07-27T15:48:26.356Z,36.79
2018-07-27T15:50:04.710Z,36.59
2018-07-27T15:51:46.315Z,36.56
2018-07-27T15:53:22.676Z,36.75
2018-07-27T15:55:01.600Z,37.29
2018-07-27T15:56:38.956Z,37.66
2018-07-27T15:58:16.684Z,37.89
2018-07-27T16:01:37.913Z,38.13
2018-07-27T16:03:14.457Z,38.25
2018-07-27T16:04:54.032Z,38.01
2018-07-27T16:06:31.304Z,37.44
2018-07-27T16:08:09.998Z,37.36
2018-07-27T16:09:47.590Z,37.86
2018-07-27T16:11:25.471Z,37.91
2018-07-27T16:13:07.195Z,38.10
2018-07-27T16:14:46.636Z,37.78
2018-07-27T16:16:27.587Z,37.45
2018-07-27T16:18:04.700Z,37.27
2018-07-27T16:19:41.938Z,37.20
2018-07-27T16:22:49.460Z,37.06
2018-07-27T16:24:31.829Z,36.94
2018-07-27T16:26:10.740Z,36.90
2018-07-27T16:27:47.858Z,36.89
2018-07-27T16:29:28.180Z,36.88
2018-07-27T16:31:06.839Z,36.92
2018-07-27T16:32:45.145Z,36.79
2018-07-27T16:34:22.388Z,36.93
2018-07-27T16:35:59.264Z,37.27
2018-07-27T16:37:36.727Z,37.68
2018-07-27T16:39:13.313Z,38.07
2018-07-27T16:40:58.177Z,37.96
2018-07-27T16:42:40.775Z,37.53
2018-07-27T16:44:17.535Z,37.18
2018-07-27T16:45:54.345Z,36.92
2018-07-27T16:47:32.238Z,36.83
2018-07-27T16:49:09.282Z,36.83
2018-07-27T16:50:46.853Z,36.84
2018-07-27T16:52:23.454Z,36.75
2018-07-27T16:54:00.016Z,36.63
2018-07-27T16:55:37.015Z,36.64
2018-07-27T16:57:15.210Z,36.66
2018-07-27T16:58:52.035Z,36.57
2018-07-27T17:00:29.383Z,36.49
2018-07-27T17:02:05.988Z,36.49
2018-07-27T17:03:44.266Z,36.66
2018-07-27T17:05:28.364Z,36.86
2018-07-27T17:07:09.141Z,36.97
2018-07-27T17:08:47.361Z,37.18
2018-07-27T17:10:25.652Z,37.58
2018-07-27T17:12:05.029Z,37.85
2018-07-27T17:13:41.640Z,38.07
2018-07-27T17:15:20.200Z,37.92
2018-07-27T17:16:57.544Z,37.76
2018-07-27T17:18:35.998Z,37.77
2018-07-27T17:20:14.538Z,37.75
2018-07-27T17:21:53.590Z,37.74
2018-07-27T17:23:34.752Z,38.02
2018-07-27T17:25:10.889Z,37.91
2018-07-27T17:26:50.623Z,37.52
2018-07-27T17:28:30.040Z,37.31
2018-07-27T17:31:53.686Z,36.98
2018-07-27T17:33:31.198Z,36.85
2018-07-27T17:35:17.675Z,36.88
2018-07-27T17:36:56.467Z,36.76
2018-07-27T17:38:36.567Z,36.65
2018-07-27T17:40:16.526Z,36.32
2018-07-27T17:41:58.099Z,36.27
2018-07-27T17:43:48.643Z,36.26
2018-07-27T17:45:29.495Z,36.29
2018-07-27T17:47:08.249Z,36.42
2018-07-27T17:48:45.323Z,36.64
2018-07-27T17:50:33.654Z,37.00
2018-07-27T17:52:25.734Z,37.02
2018-07-27T17:54:07.573Z,36.78
2018-07-27T17:57:33.931Z,36.86
2018-07-27T17:59:11.513Z,37.16
2018-07-27T18:02:26.851Z,37.81
2018-07-27T18:04:05.130Z,37.76
2018-07-27T18:05:46.500Z,37.35
2018-07-27T18:07:24.083Z,36.98
2018-07-27T18:09:03.142Z,36.67
2018-07-27T18:10:42.297Z,36.46
2018-07-27T18:12:21.491Z,36.31
2018-07-27T18:14:02.812Z,36.28
2018-07-27T18:15:39.606Z,36.19
2018-07-27T18:17:16.708Z,36.15
2018-07-27T18:18:54.568Z,36.15
2018-07-27T18:20:31.854Z,36.16
2018-07-27T18:22:08.543Z,36.15
2018-07-27T18:23:51.101Z,36.12
2018-07-27T18:25:28.848Z,36.13
2018-07-27T18:27:06.573Z,36.16
2018-07-27T18:28:47.145Z,36.18
2018-07-27T18:30:26.956Z,36.22
2018-07-27T18:32:03.729Z,36.16
2018-07-27T18:33:40.823Z,36.11
2018-07-27T18:35:19.238Z,36.17
2018-07-27T18:37:00.556Z,36.26
2018-07-27T18:38:38.749Z,36.63
2018-07-27T18:40:17.324Z,36.55
2018-07-27T18:42:00.805Z,36.22
2018-07-27T18:43:39.399Z,36.12
2018-07-27T18:45:24.627Z,35.98
2018-07-27T18:47:01.797Z,35.81
2018-07-27T18:48:39.631Z,35.83
2018-07-27T18:50:16.496Z,35.91
2018-07-27T18:51:53.626Z,35.43
2018-07-27T18:53:30.082Z,35.34
2018-07-27T18:55:08.851Z,35.07
2018-07-27T18:57:17.541Z,34.90
2018-07-27T18:58:58.585Z,35.09
2018-07-27T19:00:35.270Z,35.02
2018-07-27T19:02:14.463Z,35.12
2018-07-27T19:03:51.000Z,35.12
2018-07-27T19:05:29.970Z,35.47
2018-07-27T19:07:07.540Z,35.19
2018-07-27T19:08:44.111Z,34.93
2018-07-27T19:10:22.823Z,34.78
2018-07-27T19:11:59.410Z,34.52
2018-07-27T19:13:37.231Z,34.44
2018-07-27T19:15:16.789Z,34.45
2018-07-27T19:16:56.544Z,34.76
2018-07-27T19:18:34.619Z,34.67
2018-07-27T19:20:13.390Z,34.52
2018-07-27T19:21:49.841Z,34.35
2018-07-27T19:23:26.861Z,34.41
2018-07-27T19:25:06.217Z,34.58
2018-07-27T19:26:44.830Z,34.66
2018-07-27T19:28:24.208Z,34.73
2018-07-27T19:30:01.360Z,34.80
2018-07-27T19:31:39.586Z,34.60
2018-07-27T19:33:16.370Z,34.33
2018-07-27T19:34:52.900Z,34.16
2018-07-27T19:36:29.242Z,33.79
2018-07-27T19:38:07.229Z,33.84
2018-07-27T19:39:49.450Z,33.98
2018-07-27T19:41:26.094Z,34.17
2018-07-27T19:43:02.518Z,34.03
2018-07-27T19:44:42.563Z,33.97
2018-07-27T19:46:21.500Z,34.20
2018-07-27T19:47:57.784Z,34.21
2018-07-27T19:49:34.507Z,34.06
2018-07-27T19:51:11.306Z,33.99
2018-07-27T19:52:49.104Z,33.81
2018-07-27T19:54:26.182Z,33.52
2018-07-27T19:56:03.923Z,33.44
2018-07-27T19:57:41.585Z,33.53
2018-07-27T19:59:18.533Z,33.71
2018-07-27T20:00:55.377Z,33.43
2018-07-27T20:02:38.006Z,33.27
2018-07-27T20:04:16.169Z,33.14
2018-07-27T20:05:53.173Z,33.26
2018-07-27T20:07:33.539Z,33.27
2018-07-27T20:09:11.302Z,33.23
2018-07-27T20:10:48.368Z,33.16
2018-07-27T20:12:24.890Z,32.97
2018-07-27T20:14:02.325Z,33.01
2018-07-27T20:15:39.805Z,32.88
2018-07-27T20:17:17.253Z,32.68
2018-07-27T20:18:56.446Z,32.58
2018-07-27T20:20:37.155Z,32.42
2018-07-27T20:22:14.245Z,32.57
2018-07-27T20:23:52.639Z,32.53
2018-07-27T20:25:31.560Z,32.53
2018-07-27T20:27:09.880Z,32.56
2018-07-27T20:28:47.159Z,32.54
2018-07-27T20:30:30.903Z,32.40
2018-07-27T20:32:07.911Z,32.40
2018-07-27T20:33:45.102Z,32.55
2018-07-27T20:35:22.711Z,32.45
2018-07-27T20:37:00.520Z,32.38
2018-07-27T20:38:38.302Z,32.56
2018-07-27T20:40:15.969Z,32.93
2018-07-27T20:41:54.310Z,33.12
2018-07-27T20:43:31.697Z,33.11
2018-07-27T20:45:09.300Z,33.06
2018-07-27T20:46:45.958Z,33.15
2018-07-27T20:48:22.371Z,33.20
2018-07-27T20:49:59.980Z,33.17
2018-07-27T20:51:38.964Z,33.06
2018-07-27T20:53:15.494Z,32.95
2018-07-27T20:54:53.920Z,32.83
2018-07-27T20:56:32.972Z,32.80
2018-07-27T20:58:11.852Z,32.83
2018-07-27T20:59:48.992Z,32.83
2018-07-27T21:01:25.780Z,32.90
2018-07-27T21:03:05.280Z,32.96
2018-07-27T21:04:43.488Z,32.98
2018-07-27T21:06:21.978Z,33.05
2018-07-27T21:08:04.857Z,33.12
2018-07-27T21:09:41.965Z,32.96
2018-07-27T21:11:20.424Z,32.83
2018-07-27T21:12:57.002Z,32.78
2018-07-27T21:14:33.593Z,32.68
2018-07-27T21:16:14.423Z,32.47
2018-07-27T21:17:54.085Z,32.33
2018-07-27T21:19:33.570Z,32.33
2018-07-27T21:21:10.258Z,32.25
2018-07-27T21:22:48.956Z,32.08
2018-07-27T21:24:25.446Z,31.86